Terminal Aerodrome Forecast
Issued by NWS

Home | Current Version | Previous Version | Text Only | Print | Product List | Glossary On
Versions: 1 2 3 4 5 6 7 8 9 10 11 12 13 14 15 16 17 18
000
FTUS43 KIND 141725
TAFLAF
TAF
KLAF 141725Z 1418/1518 04004KT P6SM BKN090
     FM150400 VRB03KT P6SM SCT070
     FM150800 23004KT P6SM BKN050
     FM151400 25008KT P6SM BKN040
     FM151600 26011KT P6SM BKN030=

USA.gov is the U.S. government's official web portal to all federal, state and local government web resources and services.